sensor_id;sensor_type;location;lat;lon;timestamp;temperature;humidity
74540;SHT31;66042;51.090;-115.340;2023-05-07T00:01:40;11.52;55.07
74540;SHT31;66042;51.090;-115.340;2023-05-07T00:04:09;11.50;55.25
74540;SHT31;66042;51.090;-115.340;2023-05-07T00:06:48;11.44;55.29
74540;SHT31;66042;51.090;-115.340;2023-05-07T00:09:15;11.40;55.45
74540;SHT31;66042;51.090;-115.340;2023-05-07T00:11:42;11.39;55.40
74540;SHT31;66042;51.090;-115.340;2023-05-07T00:14:09;11.41;55.46
74540;SHT31;66042;51.090;-115.340;2023-05-07T00:16:36;11.40;55.51
74540;SHT31;66042;51.090;-115.340;2023-05-07T00:19:06;11.39;55.62
74540;SHT31;66042;51.090;-115.340;2023-05-07T00:21:33;11.35;55.62
74540;SHT31;66042;51.090;-115.340;2023-05-07T00:23:59;11.31;55.79
74540;SHT31;66042;51.090;-115.340;2023-05-07T00:26:26;11.29;55.82
74540;SHT31;66042;51.090;-115.340;2023-05-07T00:28:53;11.23;55.78
74540;SHT31;66042;51.090;-115.340;2023-05-07T00:31:20;11.23;55.85
74540;SHT31;66042;51.090;-115.340;2023-05-07T00:33:46;11.17;56.09
74540;SHT31;66042;51.090;-115.340;2023-05-07T00:36:16;11.05;56.31
74540;SHT31;66042;51.090;-115.340;2023-05-07T00:38:43;10.98;56.40
74540;SHT31;66042;51.090;-115.340;2023-05-07T00:41:10;10.95;56.58
74540;SHT31;66042;51.090;-115.340;2023-05-07T00:43:37;10.91;56.57
74540;SHT31;66042;51.090;-115.340;2023-05-07T00:46:04;10.92;56.67
74540;SHT31;66042;51.090;-115.340;2023-05-07T00:48:31;10.93;56.74
74540;SHT31;66042;51.090;-115.340;2023-05-07T00:51:00;10.93;56.65
74540;SHT31;66042;51.090;-115.340;2023-05-07T00:53:27;10.93;56.78
74540;SHT31;66042;51.090;-115.340;2023-05-07T00:55:54;10.87;56.76
74540;SHT31;66042;51.090;-115.340;2023-05-07T00:58:21;10.86;56.57
74540;SHT31;66042;51.090;-115.340;2023-05-07T01:00:49;10.85;56.46
74540;SHT31;66042;51.090;-115.340;2023-05-07T01:03:16;10.86;56.44
74540;SHT31;66042;51.090;-115.340;2023-05-07T01:05:42;10.90;56.43
74540;SHT31;66042;51.090;-115.340;2023-05-07T01:08:13;10.94;56.41
74540;SHT31;66042;51.090;-115.340;2023-05-07T01:10:41;10.93;56.06
74540;SHT31;66042;51.090;-115.340;2023-05-07T01:13:09;10.92;55.76
74540;SHT31;66042;51.090;-115.340;2023-05-07T01:15:37;10.88;55.84
74540;SHT31;66042;51.090;-115.340;2023-05-07T01:18:07;10.90;55.58
74540;SHT31;66042;51.090;-115.340;2023-05-07T01:20:36;10.92;55.44
74540;SHT31;66042;51.090;-115.340;2023-05-07T01:23:04;10.91;55.12
74540;SHT31;66042;51.090;-115.340;2023-05-07T01:25:33;10.89;54.95
74540;SHT31;66042;51.090;-115.340;2023-05-07T01:28:00;10.86;55.11
74540;SHT31;66042;51.090;-115.340;2023-05-07T01:30:27;10.85;54.97
74540;SHT31;66042;51.090;-115.340;2023-05-07T01:33:03;10.82;54.90
74540;SHT31;66042;51.090;-115.340;2023-05-07T01:35:37;10.82;55.00
74540;SHT31;66042;51.090;-115.340;2023-05-07T01:38:08;10.78;54.98
74540;SHT31;66042;51.090;-115.340;2023-05-07T01:40:35;10.69;55.02
74540;SHT31;66042;51.090;-115.340;2023-05-07T01:43:02;10.68;55.05
74540;SHT31;66042;51.090;-115.340;2023-05-07T01:45:30;10.68;55.38
74540;SHT31;66042;51.090;-115.340;2023-05-07T01:47:59;10.68;55.39
74540;SHT31;66042;51.090;-115.340;2023-05-07T01:50:29;10.67;55.44
74540;SHT31;66042;51.090;-115.340;2023-05-07T01:52:59;10.67;55.44
74540;SHT31;66042;51.090;-115.340;2023-05-07T01:55:28;10.67;55.56
74540;SHT31;66042;51.090;-115.340;2023-05-07T01:57:55;10.62;55.52
74540;SHT31;66042;51.090;-115.340;2023-05-07T02:00:22;10.57;55.64
74540;SHT31;66042;51.090;-115.340;2023-05-07T02:02:49;10.57;55.73
74540;SHT31;66042;51.090;-115.340;2023-05-07T02:05:16;10.51;55.87
74540;SHT31;66042;51.090;-115.340;2023-05-07T02:07:44;10.49;55.87
74540;SHT31;66042;51.090;-115.340;2023-05-07T02:10:11;10.47;55.87
74540;SHT31;66042;51.090;-115.340;2023-05-07T02:12:38;10.47;55.94
74540;SHT31;66042;51.090;-115.340;2023-05-07T02:15:05;10.48;56.01
74540;SHT31;66042;51.090;-115.340;2023-05-07T02:17:33;10.47;56.00
74540;SHT31;66042;51.090;-115.340;2023-05-07T02:20:01;10.48;56.09
74540;SHT31;66042;51.090;-115.340;2023-05-07T02:22:29;10.47;56.04
74540;SHT31;66042;51.090;-115.340;2023-05-07T02:24:55;10.48;56.14
74540;SHT31;66042;51.090;-115.340;2023-05-07T02:27:22;10.48;56.38
74540;SHT31;66042;51.090;-115.340;2023-05-07T02:29:49;10.42;56.38
74540;SHT31;66042;51.090;-115.340;2023-05-07T02:32:16;10.40;56.38
74540;SHT31;66042;51.090;-115.340;2023-05-07T02:34:43;10.36;56.47
74540;SHT31;66042;51.090;-115.340;2023-05-07T02:37:11;10.32;56.56
74540;SHT31;66042;51.090;-115.340;2023-05-07T02:39:41;10.29;56.61
74540;SHT31;66042;51.090;-115.340;2023-05-07T02:42:08;10.27;56.67
74540;SHT31;66042;51.090;-115.340;2023-05-07T02:44:35;10.23;56.78
74540;SHT31;66042;51.090;-115.340;2023-05-07T02:47:01;10.20;56.88
74540;SHT31;66042;51.090;-115.340;2023-05-07T02:49:29;10.15;57.04
74540;SHT31;66042;51.090;-115.340;2023-05-07T02:51:56;10.09;57.27
74540;SHT31;66042;51.090;-115.340;2023-05-07T02:54:22;10.06;57.33
74540;SHT31;66042;51.090;-115.340;2023-05-07T02:56:52;10.02;57.32
74540;SHT31;66042;51.090;-115.340;2023-05-07T02:59:19;10.01;57.46
74540;SHT31;66042;51.090;-115.340;2023-05-07T03:01:46;9.97;57.42
74540;SHT31;66042;51.090;-115.340;2023-05-07T03:04:13;9.92;57.52
74540;SHT31;66042;51.090;-115.340;2023-05-07T03:06:41;9.89;57.53
74540;SHT31;66042;51.090;-115.340;2023-05-07T03:09:08;9.87;57.66
74540;SHT31;66042;51.090;-115.340;2023-05-07T03:11:41;9.86;57.63
74540;SHT31;66042;51.090;-115.340;2023-05-07T03:14:08;9.85;57.75
74540;SHT31;66042;51.090;-115.340;2023-05-07T03:16:38;9.84;57.95
74540;SHT31;66042;51.090;-115.340;2023-05-07T03:19:05;9.82;57.96
74540;SHT31;66042;51.090;-115.340;2023-05-07T03:21:33;9.83;57.88
74540;SHT31;66042;51.090;-115.340;2023-05-07T03:24:00;9.86;57.92
74540;SHT31;66042;51.090;-115.340;2023-05-07T03:26:27;9.87;57.96
74540;SHT31;66042;51.090;-115.340;2023-05-07T03:28:54;9.86;58.18
74540;SHT31;66042;51.090;-115.340;2023-05-07T03:31:21;9.83;58.04
74540;SHT31;66042;51.090;-115.340;2023-05-07T03:33:55;9.82;58.22
74540;SHT31;66042;51.090;-115.340;2023-05-07T03:36:31;9.80;58.24
74540;SHT31;66042;51.090;-115.340;2023-05-07T03:38:59;9.78;58.35
74540;SHT31;66042;51.090;-115.340;2023-05-07T03:41:26;9.79;58.38
74540;SHT31;66042;51.090;-115.340;2023-05-07T03:43:55;9.78;58.45
74540;SHT31;66042;51.090;-115.340;2023-05-07T03:46:26;9.78;58.43
74540;SHT31;66042;51.090;-115.340;2023-05-07T03:49:02;9.77;58.46
74540;SHT31;66042;51.090;-115.340;2023-05-07T03:51:29;9.76;58.51
74540;SHT31;66042;51.090;-115.340;2023-05-07T03:53:57;9.75;58.50
74540;SHT31;66042;51.090;-115.340;2023-05-07T03:56:27;9.74;58.58
74540;SHT31;66042;51.090;-115.340;2023-05-07T03:58:55;9.71;58.56
74540;SHT31;66042;51.090;-115.340;2023-05-07T04:01:22;9.69;58.61
74540;SHT31;66042;51.090;-115.340;2023-05-07T04:03:51;9.67;58.83
74540;SHT31;66042;51.090;-115.340;2023-05-07T04:06:21;9.63;58.95
74540;SHT31;66042;51.090;-115.340;2023-05-07T04:08:48;9.60;59.23
74540;SHT31;66042;51.090;-115.340;2023-05-07T04:11:16;9.57;59.32
74540;SHT31;66042;51.090;-115.340;2023-05-07T04:13:43;9.57;59.30
74540;SHT31;66042;51.090;-115.340;2023-05-07T04:16:10;9.60;59.34
74540;SHT31;66042;51.090;-115.340;2023-05-07T04:18:40;9.64;59.31
74540;SHT31;66042;51.090;-115.340;2023-05-07T04:21:16;9.67;59.29
74540;SHT31;66042;51.090;-115.340;2023-05-07T04:23:51;9.70;59.33
74540;SHT31;66042;51.090;-115.340;2023-05-07T04:26:19;9.72;59.23
74540;SHT31;66042;51.090;-115.340;2023-05-07T04:28:56;9.75;59.43
74540;SHT31;66042;51.090;-115.340;2023-05-07T04:31:24;9.75;59.40
74540;SHT31;66042;51.090;-115.340;2023-05-07T04:33:52;9.76;59.31
74540;SHT31;66042;51.090;-115.340;2023-05-07T04:36:19;9.78;59.26
74540;SHT31;66042;51.090;-115.340;2023-05-07T04:38:46;9.77;59.31
74540;SHT31;66042;51.090;-115.340;2023-05-07T04:41:14;9.76;59.38
74540;SHT31;66042;51.090;-115.340;2023-05-07T04:43:44;9.74;59.48
74540;SHT31;66042;51.090;-115.340;2023-05-07T04:46:11;9.72;59.48
74540;SHT31;66042;51.090;-115.340;2023-05-07T04:48:44;9.72;59.40
74540;SHT31;66042;51.090;-115.340;2023-05-07T04:51:14;9.72;59.30
74540;SHT31;66042;51.090;-115.340;2023-05-07T04:53:40;9.72;59.34
74540;SHT31;66042;51.090;-115.340;2023-05-07T04:56:08;9.70;59.30
74540;SHT31;66042;51.090;-115.340;2023-05-07T04:58:36;9.70;59.29
74540;SHT31;66042;51.090;-115.340;2023-05-07T05:01:07;9.67;59.39
74540;SHT31;66042;51.090;-115.340;2023-05-07T05:03:34;9.64;59.36
74540;SHT31;66042;51.090;-115.340;2023-05-07T05:06:01;9.62;59.31
74540;SHT31;66042;51.090;-115.340;2023-05-07T05:08:29;9.60;59.29
74540;SHT31;66042;51.090;-115.340;2023-05-07T05:10:56;9.58;59.27
74540;SHT31;66042;51.090;-115.340;2023-05-07T05:13:30;9.56;59.40
74540;SHT31;66042;51.090;-115.340;2023-05-07T05:15:57;9.50;59.58
74540;SHT31;66042;51.090;-115.340;2023-05-07T05:18:25;9.46;59.62
74540;SHT31;66042;51.090;-115.340;2023-05-07T05:20:52;9.46;59.58
74540;SHT31;66042;51.090;-115.340;2023-05-07T05:23:23;9.47;59.60
74540;SHT31;66042;51.090;-115.340;2023-05-07T05:25:50;9.44;59.69
74540;SHT31;66042;51.090;-115.340;2023-05-07T05:28:23;9.44;59.68
74540;SHT31;66042;51.090;-115.340;2023-05-07T05:30:50;9.42;59.66
74540;SHT31;66042;51.090;-115.340;2023-05-07T05:33:17;9.43;59.73
74540;SHT31;66042;51.090;-115.340;2023-05-07T05:35:45;9.40;59.86
74540;SHT31;66042;51.090;-115.340;2023-05-07T05:38:15;9.37;60.05
74540;SHT31;66042;51.090;-115.340;2023-05-07T05:40:41;9.32;60.26
74540;SHT31;66042;51.090;-115.340;2023-05-07T05:43:08;9.29;60.46
74540;SHT31;66042;51.090;-115.340;2023-05-07T05:45:40;9.21;60.83
74540;SHT31;66042;51.090;-115.340;2023-05-07T05:48:09;9.14;61.10
74540;SHT31;66042;51.090;-115.340;2023-05-07T05:50:37;9.17;60.88
74540;SHT31;66042;51.090;-115.340;2023-05-07T05:53:07;9.20;60.99
74540;SHT31;66042;51.090;-115.340;2023-05-07T05:55:34;9.26;60.80
74540;SHT31;66042;51.090;-115.340;2023-05-07T05:58:01;9.31;60.76
74540;SHT31;66042;51.090;-115.340;2023-05-07T06:00:28;9.34;60.63
74540;SHT31;66042;51.090;-115.340;2023-05-07T06:02:55;9.36;60.52
74540;SHT31;66042;51.090;-115.340;2023-05-07T06:05:22;9.41;60.42
74540;SHT31;66042;51.090;-115.340;2023-05-07T06:07:50;9.44;60.29
74540;SHT31;66042;51.090;-115.340;2023-05-07T06:10:18;9.46;60.21
74540;SHT31;66042;51.090;-115.340;2023-05-07T06:12:45;9.47;60.29
74540;SHT31;66042;51.090;-115.340;2023-05-07T06:15:12;9.32;60.76
74540;SHT31;66042;51.090;-115.340;2023-05-07T06:17:39;9.27;60.85
74540;SHT31;66042;51.090;-115.340;2023-05-07T06:20:06;9.29;60.81
74540;SHT31;66042;51.090;-115.340;2023-05-07T06:22:33;9.26;61.10
74540;SHT31;66042;51.090;-115.340;2023-05-07T06:25:00;9.22;61.10
74540;SHT31;66042;51.090;-115.340;2023-05-07T06:27:28;9.21;61.19
74540;SHT31;66042;51.090;-115.340;2023-05-07T06:29:55;9.21;61.16
74540;SHT31;66042;51.090;-115.340;2023-05-07T06:32:22;9.22;61.00
74540;SHT31;66042;51.090;-115.340;2023-05-07T06:34:49;9.23;60.90
74540;SHT31;66042;51.090;-115.340;2023-05-07T06:37:15;9.24;60.89
74540;SHT31;66042;51.090;-115.340;2023-05-07T06:39:42;9.24;60.94
74540;SHT31;66042;51.090;-115.340;2023-05-07T06:42:09;9.25;60.93
74540;SHT31;66042;51.090;-115.340;2023-05-07T06:44:39;9.24;61.05
74540;SHT31;66042;51.090;-115.340;2023-05-07T06:47:07;9.20;61.14
74540;SHT31;66042;51.090;-115.340;2023-05-07T06:49:34;9.19;61.16
74540;SHT31;66042;51.090;-115.340;2023-05-07T06:52:04;9.19;61.24
74540;SHT31;66042;51.090;-115.340;2023-05-07T06:54:31;9.17;61.24
74540;SHT31;66042;51.090;-115.340;2023-05-07T06:57:01;9.15;61.31
74540;SHT31;66042;51.090;-115.340;2023-05-07T06:59:28;9.14;61.26
74540;SHT31;66042;51.090;-115.340;2023-05-07T07:01:59;9.16;61.24
74540;SHT31;66042;51.090;-115.340;2023-05-07T07:04:26;9.16;61.25
74540;SHT31;66042;51.090;-115.340;2023-05-07T07:06:56;9.18;61.26
74540;SHT31;66042;51.090;-115.340;2023-05-07T07:09:23;9.18;61.35
74540;SHT31;66042;51.090;-115.340;2023-05-07T07:11:51;9.19;61.33
74540;SHT31;66042;51.090;-115.340;2023-05-07T07:14:18;9.19;61.37
74540;SHT31;66042;51.090;-115.340;2023-05-07T07:16:45;9.20;61.33
74540;SHT31;66042;51.090;-115.340;2023-05-07T07:19:12;9.20;61.34
74540;SHT31;66042;51.090;-115.340;2023-05-07T07:21:41;9.19;61.43
74540;SHT31;66042;51.090;-115.340;2023-05-07T07:24:10;9.19;61.35
74540;SHT31;66042;51.090;-115.340;2023-05-07T07:26:46;9.18;61.36
74540;SHT31;66042;51.090;-115.340;2023-05-07T07:29:13;9.15;61.50
74540;SHT31;66042;51.090;-115.340;2023-05-07T07:31:40;9.11;61.50
74540;SHT31;66042;51.090;-115.340;2023-05-07T07:34:07;9.10;61.59
74540;SHT31;66042;51.090;-115.340;2023-05-07T07:36:37;9.08;61.52
74540;SHT31;66042;51.090;-115.340;2023-05-07T07:39:04;9.08;61.49
74540;SHT31;66042;51.090;-115.340;2023-05-07T07:41:35;9.08;61.40
74540;SHT31;66042;51.090;-115.340;2023-05-07T07:44:02;9.07;61.48
74540;SHT31;66042;51.090;-115.340;2023-05-07T07:46:34;9.06;61.54
74540;SHT31;66042;51.090;-115.340;2023-05-07T07:49:04;9.01;61.73
74540;SHT31;66042;51.090;-115.340;2023-05-07T07:51:31;9.00;61.63
74540;SHT31;66042;51.090;-115.340;2023-05-07T07:53:57;9.00;61.69
74540;SHT31;66042;51.090;-115.340;2023-05-07T07:56:24;8.97;61.73
74540;SHT31;66042;51.090;-115.340;2023-05-07T07:58:54;8.94;61.78
74540;SHT31;66042;51.090;-115.340;2023-05-07T08:01:21;8.89;61.99
74540;SHT31;66042;51.090;-115.340;2023-05-07T08:03:48;8.79;62.15
74540;SHT31;66042;51.090;-115.340;2023-05-07T08:06:15;8.79;62.11
74540;SHT31;66042;51.090;-115.340;2023-05-07T08:08:45;8.83;62.06
74540;SHT31;66042;51.090;-115.340;2023-05-07T08:11:12;8.84;62.08
74540;SHT31;66042;51.090;-115.340;2023-05-07T08:13:40;8.86;62.08
74540;SHT31;66042;51.090;-115.340;2023-05-07T08:16:07;8.89;62.01
74540;SHT31;66042;51.090;-115.340;2023-05-07T08:18:35;8.89;61.93
74540;SHT31;66042;51.090;-115.340;2023-05-07T08:21:02;8.90;61.92
74540;SHT31;66042;51.090;-115.340;2023-05-07T08:23:29;8.93;61.97
74540;SHT31;66042;51.090;-115.340;2023-05-07T08:26:00;8.95;61.94
74540;SHT31;66042;51.090;-115.340;2023-05-07T08:28:27;8.94;62.00
74540;SHT31;66042;51.090;-115.340;2023-05-07T08:30:54;8.95;61.90
74540;SHT31;66042;51.090;-115.340;2023-05-07T08:33:22;8.93;61.90
74540;SHT31;66042;51.090;-115.340;2023-05-07T08:35:49;8.93;61.90
74540;SHT31;66042;51.090;-115.340;2023-05-07T08:38:16;8.90;61.92
74540;SHT31;66042;51.090;-115.340;2023-05-07T08:40:43;8.87;61.92
74540;SHT31;66042;51.090;-115.340;2023-05-07T08:43:13;8.83;62.07
74540;SHT31;66042;51.090;-115.340;2023-05-07T08:45:40;8.74;62.41
74540;SHT31;66042;51.090;-115.340;2023-05-07T08:48:16;8.66;62.54
74540;SHT31;66042;51.090;-115.340;2023-05-07T08:50:50;8.63;62.52
74540;SHT31;66042;51.090;-115.340;2023-05-07T08:53:18;8.62;62.51
74540;SHT31;66042;51.090;-115.340;2023-05-07T08:55:46;8.60;62.48
74540;SHT31;66042;51.090;-115.340;2023-05-07T08:58:18;8.55;62.57
74540;SHT31;66042;51.090;-115.340;2023-05-07T09:00:45;8.53;62.61
74540;SHT31;66042;51.090;-115.340;2023-05-07T09:03:13;8.52;62.74
74540;SHT31;66042;51.090;-115.340;2023-05-07T09:05:40;8.50;62.72
74540;SHT31;66042;51.090;-115.340;2023-05-07T09:08:14;8.51;62.66
74540;SHT31;66042;51.090;-115.340;2023-05-07T09:10:41;8.51;62.68
74540;SHT31;66042;51.090;-115.340;2023-05-07T09:13:09;8.50;62.70
74540;SHT31;66042;51.090;-115.340;2023-05-07T09:15:43;8.48;62.80
74540;SHT31;66042;51.090;-115.340;2023-05-07T09:18:13;8.47;62.90
74540;SHT31;66042;51.090;-115.340;2023-05-07T09:20:43;8.47;62.90
74540;SHT31;66042;51.090;-115.340;2023-05-07T09:23:10;8.46;62.88
74540;SHT31;66042;51.090;-115.340;2023-05-07T09:25:40;8.44;63.05
74540;SHT31;66042;51.090;-115.340;2023-05-07T09:28:07;8.40;63.11
74540;SHT31;66042;51.090;-115.340;2023-05-07T09:30:36;8.39;63.16
74540;SHT31;66042;51.090;-115.340;2023-05-07T09:33:03;8.38;63.21
74540;SHT31;66042;51.090;-115.340;2023-05-07T09:35:30;8.36;63.29
74540;SHT31;66042;51.090;-115.340;2023-05-07T09:37:58;8.34;63.21
74540;SHT31;66042;51.090;-115.340;2023-05-07T09:40:29;8.33;63.32
74540;SHT31;66042;51.090;-115.340;2023-05-07T09:43:07;8.32;63.30
74540;SHT31;66042;51.090;-115.340;2023-05-07T09:45:38;8.30;63.30
74540;SHT31;66042;51.090;-115.340;2023-05-07T09:48:05;8.31;63.29
74540;SHT31;66042;51.090;-115.340;2023-05-07T09:50:35;8.35;63.30
74540;SHT31;66042;51.090;-115.340;2023-05-07T09:53:14;8.36;63.25
74540;SHT31;66042;51.090;-115.340;2023-05-07T09:55:43;8.37;63.32
74540;SHT31;66042;51.090;-115.340;2023-05-07T09:58:12;8.36;63.40
74540;SHT31;66042;51.090;-115.340;2023-05-07T10:00:41;8.37;63.36
74540;SHT31;66042;51.090;-115.340;2023-05-07T10:03:09;8.36;63.41
74540;SHT31;66042;51.090;-115.340;2023-05-07T10:05:38;8.36;63.40
74540;SHT31;66042;51.090;-115.340;2023-05-07T10:08:05;8.37;63.40
74540;SHT31;66042;51.090;-115.340;2023-05-07T10:10:33;8.35;63.37
74540;SHT31;66042;51.090;-115.340;2023-05-07T10:13:01;8.35;63.35
74540;SHT31;66042;51.090;-115.340;2023-05-07T10:15:31;8.35;63.38
74540;SHT31;66042;51.090;-115.340;2023-05-07T10:17:58;8.33;63.37
74540;SHT31;66042;51.090;-115.340;2023-05-07T10:20:25;8.30;63.43
74540;SHT31;66042;51.090;-115.340;2023-05-07T10:22:53;8.28;63.49
74540;SHT31;66042;51.090;-115.340;2023-05-07T10:25:26;8.25;63.53
74540;SHT31;66042;51.090;-115.340;2023-05-07T10:28:01;8.21;63.53
74540;SHT31;66042;51.090;-115.340;2023-05-07T10:33:49;8.21;63.53
74540;SHT31;66042;51.090;-115.340;2023-05-07T10:36:21;8.21;63.55
74540;SHT31;66042;51.090;-115.340;2023-05-07T10:38:49;8.24;63.44
74540;SHT31;66042;51.090;-115.340;2023-05-07T10:41:16;8.27;63.41
74540;SHT31;66042;51.090;-115.340;2023-05-07T10:43:44;8.27;63.34
74540;SHT31;66042;51.090;-115.340;2023-05-07T10:46:16;8.24;63.34
74540;SHT31;66042;51.090;-115.340;2023-05-07T10:51:34;8.22;63.40
74540;SHT31;66042;51.090;-115.340;2023-05-07T10:56:37;8.23;63.39
74540;SHT31;66042;51.090;-115.340;2023-05-07T11:02:02;8.20;63.49
74540;SHT31;66042;51.090;-115.340;2023-05-07T11:04:31;8.20;63.54
74540;SHT31;66042;51.090;-115.340;2023-05-07T11:15:09;8.10;63.84
74540;SHT31;66042;51.090;-115.340;2023-05-07T11:17:56;8.08;63.89
74540;SHT31;66042;51.090;-115.340;2023-05-07T11:20:58;8.04;63.97
74540;SHT31;66042;51.090;-115.340;2023-05-07T11:26:06;8.00;64.15
74540;SHT31;66042;51.090;-115.340;2023-05-07T11:28:41;7.97;64.24
74540;SHT31;66042;51.090;-115.340;2023-05-07T11:31:09;7.99;64.33
74540;SHT31;66042;51.090;-115.340;2023-05-07T11:33:37;8.02;64.34
74540;SHT31;66042;51.090;-115.340;2023-05-07T11:36:05;8.06;64.34
74540;SHT31;66042;51.090;-115.340;2023-05-07T11:38:37;8.11;64.38
74540;SHT31;66042;51.090;-115.340;2023-05-07T11:41:04;8.13;64.30
74540;SHT31;66042;51.090;-115.340;2023-05-07T11:43:34;8.17;64.32
74540;SHT31;66042;51.090;-115.340;2023-05-07T11:46:10;8.19;64.31
74540;SHT31;66042;51.090;-115.340;2023-05-07T11:48:39;8.23;64.34
74540;SHT31;66042;51.090;-115.340;2023-05-07T11:51:07;8.22;64.40
74540;SHT31;66042;51.090;-115.340;2023-05-07T11:53:41;8.24;64.32
74540;SHT31;66042;51.090;-115.340;2023-05-07T11:56:18;8.24;64.36
74540;SHT31;66042;51.090;-115.340;2023-05-07T11:58:46;8.24;64.30
74540;SHT31;66042;51.090;-115.340;2023-05-07T12:01:15;8.25;64.41
74540;SHT31;66042;51.090;-115.340;2023-05-07T12:03:42;8.25;64.40
74540;SHT31;66042;51.090;-115.340;2023-05-07T12:06:11;8.23;64.46
74540;SHT31;66042;51.090;-115.340;2023-05-07T12:08:43;8.16;64.61
74540;SHT31;66042;51.090;-115.340;2023-05-07T12:11:22;8.14;64.64
74540;SHT31;66042;51.090;-115.340;2023-05-07T12:13:51;8.13;64.68
74540;SHT31;66042;51.090;-115.340;2023-05-07T12:16:20;8.12;64.64
74540;SHT31;66042;51.090;-115.340;2023-05-07T12:18:48;8.13;64.57
74540;SHT31;66042;51.090;-115.340;2023-05-07T12:21:18;8.10;64.61
74540;SHT31;66042;51.090;-115.340;2023-05-07T12:23:48;8.09;64.69
74540;SHT31;66042;51.090;-115.340;2023-05-07T12:26:14;8.12;64.70
74540;SHT31;66042;51.090;-115.340;2023-05-07T12:28:41;8.15;64.66
74540;SHT31;66042;51.090;-115.340;2023-05-07T12:31:08;8.18;64.60
74540;SHT31;66042;51.090;-115.340;2023-05-07T12:33:35;8.21;64.59
74540;SHT31;66042;51.090;-115.340;2023-05-07T12:36:03;8.24;64.56
74540;SHT31;66042;51.090;-115.340;2023-05-07T12:38:35;8.24;64.70
74540;SHT31;66042;51.090;-115.340;2023-05-07T12:41:05;8.25;64.61
74540;SHT31;66042;51.090;-115.340;2023-05-07T12:43:35;8.27;64.54
74540;SHT31;66042;51.090;-115.340;2023-05-07T12:46:04;8.29;64.51
74540;SHT31;66042;51.090;-115.340;2023-05-07T12:48:33;8.29;64.56
74540;SHT31;66042;51.090;-115.340;2023-05-07T12:51:03;8.31;64.52
74540;SHT31;66042;51.090;-115.340;2023-05-07T12:53:33;8.32;64.59
74540;SHT31;66042;51.090;-115.340;2023-05-07T12:56:07;8.31;64.58
74540;SHT31;66042;51.090;-115.340;2023-05-07T12:58:35;8.27;64.86
74540;SHT31;66042;51.090;-115.340;2023-05-07T13:01:06;8.19;65.03
74540;SHT31;66042;51.090;-115.340;2023-05-07T13:03:35;8.12;65.17
74540;SHT31;66042;51.090;-115.340;2023-05-07T13:06:07;7.99;65.40
74540;SHT31;66042;51.090;-115.340;2023-05-07T13:08:37;7.84;65.68
74540;SHT31;66042;51.090;-115.340;2023-05-07T13:11:11;7.90;65.45
74540;SHT31;66042;51.090;-115.340;2023-05-07T13:13:39;7.98;65.22
74540;SHT31;66042;51.090;-115.340;2023-05-07T13:16:08;8.06;65.07
74540;SHT31;66042;51.090;-115.340;2023-05-07T13:18:37;8.13;65.00
74540;SHT31;66042;51.090;-115.340;2023-05-07T13:21:06;8.21;64.96
74540;SHT31;66042;51.090;-115.340;2023-05-07T13:23:33;8.27;64.81
74540;SHT31;66042;51.090;-115.340;2023-05-07T13:26:00;8.20;65.23
74540;SHT31;66042;51.090;-115.340;2023-05-07T13:28:26;8.19;65.26
74540;SHT31;66042;51.090;-115.340;2023-05-07T13:30:54;8.24;65.11
74540;SHT31;66042;51.090;-115.340;2023-05-07T13:33:20;8.32;65.05
74540;SHT31;66042;51.090;-115.340;2023-05-07T13:35:49;8.35;64.92
74540;SHT31;66042;51.090;-115.340;2023-05-07T13:38:16;8.37;64.87
74540;SHT31;66042;51.090;-115.340;2023-05-07T13:40:43;8.34;64.92
74540;SHT31;66042;51.090;-115.340;2023-05-07T13:43:09;8.38;64.80
74540;SHT31;66042;51.090;-115.340;2023-05-07T13:45:36;8.44;64.46
74540;SHT31;66042;51.090;-115.340;2023-05-07T13:48:03;8.50;64.30
74540;SHT31;66042;51.090;-115.340;2023-05-07T13:50:30;8.55;64.32
74540;SHT31;66042;51.090;-115.340;2023-05-07T13:52:57;8.59;64.23
74540;SHT31;66042;51.090;-115.340;2023-05-07T13:55:25;8.62;64.11
74540;SHT31;66042;51.090;-115.340;2023-05-07T13:57:57;8.63;64.15
74540;SHT31;66042;51.090;-115.340;2023-05-07T14:00:26;8.64;63.92
74540;SHT31;66042;51.090;-115.340;2023-05-07T14:02:55;8.66;63.72
74540;SHT31;66042;51.090;-115.340;2023-05-07T14:05:23;8.65;63.83
74540;SHT31;66042;51.090;-115.340;2023-05-07T14:07:52;8.64;63.97
74540;SHT31;66042;51.090;-115.340;2023-05-07T14:10:20;8.65;63.79
74540;SHT31;66042;51.090;-115.340;2023-05-07T14:12:48;8.67;63.76
74540;SHT31;66042;51.090;-115.340;2023-05-07T14:15:15;8.67;64.00
74540;SHT31;66042;51.090;-115.340;2023-05-07T14:17:43;8.67;64.07
74540;SHT31;66042;51.090;-115.340;2023-05-07T14:20:10;8.71;64.13
74540;SHT31;66042;51.090;-115.340;2023-05-07T14:22:38;8.74;63.88
74540;SHT31;66042;51.090;-115.340;2023-05-07T14:25:04;8.76;63.97
74540;SHT31;66042;51.090;-115.340;2023-05-07T14:27:32;8.79;63.91
74540;SHT31;66042;51.090;-115.340;2023-05-07T14:29:59;8.85;63.87
74540;SHT31;66042;51.090;-115.340;2023-05-07T14:32:26;8.90;63.81
74540;SHT31;66042;51.090;-115.340;2023-05-07T14:34:54;8.94;63.61
74540;SHT31;66042;51.090;-115.340;2023-05-07T14:37:21;8.95;63.86
74540;SHT31;66042;51.090;-115.340;2023-05-07T14:39:49;8.99;63.48
74540;SHT31;66042;51.090;-115.340;2023-05-07T14:42:16;9.04;63.47
74540;SHT31;66042;51.090;-115.340;2023-05-07T14:44:43;9.03;63.53
74540;SHT31;66042;51.090;-115.340;2023-05-07T14:47:10;9.04;63.53
74540;SHT31;66042;51.090;-115.340;2023-05-07T14:49:38;9.04;63.52
74540;SHT31;66042;51.090;-115.340;2023-05-07T14:52:06;9.02;63.82
74540;SHT31;66042;51.090;-115.340;2023-05-07T14:54:37;9.06;63.61
74540;SHT31;66042;51.090;-115.340;2023-05-07T14:57:05;9.09;63.68
74540;SHT31;66042;51.090;-115.340;2023-05-07T14:59:35;9.15;63.41
74540;SHT31;66042;51.090;-115.340;2023-05-07T15:02:04;9.19;63.03
74540;SHT31;66042;51.090;-115.340;2023-05-07T15:04:33;9.23;63.52
74540;SHT31;66042;51.090;-115.340;2023-05-07T15:07:14;9.27;63.35
74540;SHT31;66042;51.090;-115.340;2023-05-07T15:09:42;9.31;63.31
74540;SHT31;66042;51.090;-115.340;2023-05-07T15:12:10;9.32;62.95
74540;SHT31;66042;51.090;-115.340;2023-05-07T15:14:37;9.25;62.77
74540;SHT31;66042;51.090;-115.340;2023-05-07T15:17:05;9.21;62.62
74540;SHT31;66042;51.090;-115.340;2023-05-07T15:19:32;9.29;63.05
74540;SHT31;66042;51.090;-115.340;2023-05-07T15:22:00;9.36;63.18
74540;SHT31;66042;51.090;-115.340;2023-05-07T15:24:29;9.43;62.83
74540;SHT31;66042;51.090;-115.340;2023-05-07T15:26:56;9.45;62.98
74540;SHT31;66042;51.090;-115.340;2023-05-07T15:29:24;9.55;63.10
74540;SHT31;66042;51.090;-115.340;2023-05-07T15:31:51;9.62;62.65